Time;durP1;ratioP1;P1;durP2;ratioP2;P2;SDS_P1;SDS_P2;PMS_P1;PMS_P2;Temp;Humidity;BMP_temperature;BMP_pressure;BME280_temperature;BME280_humidity;BME280_pressure;Samples;Min_cycle;Max_cycle;Signal;HPM_P1;HPM_P2
2023/01/26 00:01:55;;;;;;;14.23;10.50;;;6.40;99.90;;;;;;5006395;28;20044;-71
2023/01/26 00:04:22;;;;;;;21.85;13.50;;;6.40;99.90;;;;;;4987872;28;20045;-71
2023/01/26 00:06:49;;;;;;;18.58;12.70;;;6.30;99.90;;;;;;5006272;28;20038;-71
2023/01/26 00:09:17;;;;;;;17.13;11.77;;;6.40;99.90;;;;;;4988185;28;20077;-71
2023/01/26 00:11:44;;;;;;;14.43;10.13;;;6.40;99.90;;;;;;5006936;28;20038;-70
2023/01/26 00:14:11;;;;;;;17.30;10.95;;;6.30;99.90;;;;;;4989156;28;20053;-71
2023/01/26 00:16:39;;;;;;;14.20;10.07;;;6.40;99.90;;;;;;5010065;28;20688;-70
2023/01/26 00:19:06;;;;;;;15.63;10.35;;;6.30;99.90;;;;;;5007959;28;20052;-71
2023/01/26 00:21:34;;;;;;;15.90;10.73;;;6.30;99.90;;;;;;4987968;28;20048;-71
2023/01/26 00:24:03;;;;;;;14.80;10.27;;;6.30;99.90;;;;;;4980827;28;20100;-69
2023/01/26 00:26:30;;;;;;;12.43;9.95;;;6.30;99.90;;;;;;5008389;28;20481;-69
2023/01/26 00:28:59;;;;;;;14.57;10.07;;;6.40;99.90;;;;;;4992937;28;20512;-70
2023/01/26 00:31:27;;;;;;;14.65;9.13;;;6.40;99.90;;;;;;4993097;28;20057;-70
2023/01/26 00:33:55;;;;;;;13.73;9.75;;;6.40;99.90;;;;;;4993603;28;20493;-70
2023/01/26 00:36:28;;;;;;;16.13;9.75;;;6.20;99.90;;;;;;4992297;28;20049;-69
2023/01/26 00:38:56;;;;;;;;;;;6.20;99.90;;;;;;5011054;28;20038;-70
2023/01/26 00:44:09;;;;;;;11.85;9.25;;;6.30;99.90;;;;;;5007189;28;20049;-71
2023/01/26 00:46:37;;;;;;;13.25;9.32;;;6.30;99.90;;;;;;5021035;23;20045;-70
2023/01/26 00:49:04;;;;;;;13.65;9.95;;;6.20;99.90;;;;;;5012647;28;20037;-70
2023/01/26 00:51:31;;;;;;;12.82;9.27;;;6.20;99.90;;;;;;5032334;28;20381;-71
2023/01/26 00:53:58;;;;;;;13.18;9.88;;;6.10;99.90;;;;;;5014059;28;20037;-70
2023/01/26 00:56:26;;;;;;;13.95;10.10;;;6.20;99.90;;;;;;5031519;28;20491;-71
2023/01/26 00:58:54;;;;;;;13.48;10.80;;;6.20;99.90;;;;;;4997689;28;20434;-70
2023/01/26 01:01:21;;;;;;;14.90;9.75;;;6.20;99.90;;;;;;5029494;28;20099;-71
2023/01/26 01:03:50;;;;;;;13.35;9.77;;;6.10;99.90;;;;;;5012722;28;20440;-71
2023/01/26 01:06:18;;;;;;;13.07;10.05;;;6.10;99.90;;;;;;5031358;28;20042;-71
2023/01/26 01:08:45;;;;;;;10.68;8.40;;;6.00;99.90;;;;;;4996303;28;20465;-71
2023/01/26 01:11:13;;;;;;;13.98;9.45;;;6.00;99.90;;;;;;4996241;28;20053;-70
2023/01/26 01:13:40;;;;;;;13.02;9.50;;;5.90;99.90;;;;;;4993744;28;20391;-71
2023/01/26 01:16:10;;;;;;;12.02;9.20;;;6.00;99.90;;;;;;4996240;28;20038;-70
2023/01/26 01:18:38;;;;;;;12.13;9.18;;;6.00;99.90;;;;;;5009803;28;20065;-71
2023/01/26 01:21:07;;;;;;;12.68;8.98;;;6.00;99.90;;;;;;5013441;28;20096;-70
2023/01/26 01:23:35;;;;;;;11.90;8.63;;;6.00;99.90;;;;;;4995366;28;20049;-71
2023/01/26 01:26:03;;;;;;;14.13;9.68;;;6.00;99.90;;;;;;4979875;28;20042;-71
2023/01/26 01:28:32;;;;;;;13.57;9.77;;;6.00;99.90;;;;;;4992797;28;20085;-71
2023/01/26 01:31:03;;;;;;;11.90;9.13;;;6.10;99.90;;;;;;5009583;28;20033;-71
2023/01/26 01:33:31;;;;;;;15.02;10.18;;;6.20;99.90;;;;;;5012035;28;20069;-71
2023/01/26 01:36:00;;;;;;;13.45;9.73;;;5.90;99.90;;;;;;4990999;28;20049;-71
2023/01/26 01:38:28;;;;;;;11.98;9.18;;;5.90;99.90;;;;;;5011546;28;20425;-71
2023/01/26 01:40:55;;;;;;;12.00;9.13;;;5.90;99.90;;;;;;5007326;28;20061;-72
2023/01/26 01:43:24;;;;;;;13.75;9.05;;;5.90;99.90;;;;;;4995816;28;20489;-71
2023/01/26 01:45:52;;;;;;;15.15;9.07;;;5.80;99.90;;;;;;5009969;28;20042;-70
2023/01/26 01:48:42;;;;;;;12.65;9.15;;;5.90;99.90;;;;;;5010511;28;20049;-68
2023/01/26 01:51:33;;;;;;;13.85;9.40;;;5.80;99.90;;;;;;4991118;28;20037;-70
2023/01/26 01:54:09;;;;;;;12.73;9.02;;;5.80;99.90;;;;;;4992564;28;20117;-70
2023/01/26 01:56:40;;;;;;;11.05;8.48;;;5.90;99.90;;;;;;4995119;28;20409;-70
2023/01/26 01:59:10;;;;;;;10.80;8.10;;;5.70;99.90;;;;;;4992952;28;20553;-70
2023/01/26 02:01:37;;;;;;;10.77;8.15;;;5.70;99.90;;;;;;5011953;28;20033;-70
2023/01/26 02:04:06;;;;;;;13.70;9.30;;;5.70;99.90;;;;;;5007984;28;20490;-69
2023/01/26 02:06:41;;;;;;;10.45;8.20;;;5.80;99.90;;;;;;5018821;22;20116;-70
2023/01/26 02:10:17;;;;;;;12.57;8.55;;;5.80;99.90;;;;;;4997881;28;20137;-68
2023/01/26 02:11:59;;;;;;;11.48;8.48;;;5.70;99.90;;;;;;5029578;28;20033;-70
2023/01/26 02:14:28;;;;;;;11.98;8.27;;;5.60;99.90;;;;;;5011932;28;20057;-70
2023/01/26 02:16:55;;;;;;;11.48;8.07;;;5.70;99.90;;;;;;5014216;28;20037;-70
2023/01/26 02:19:28;;;;;;;12.10;8.65;;;5.60;99.90;;;;;;5028956;28;20120;-69
2023/01/26 02:21:59;;;;;;;12.35;9.07;;;5.60;99.90;;;;;;5013161;28;20698;-69
2023/01/26 02:24:33;;;;;;;10.02;8.10;;;5.60;99.90;;;;;;5011698;28;20416;-70
2023/01/26 02:27:01;;;;;;;13.15;9.18;;;5.70;99.90;;;;;;4994775;28;20038;-70
2023/01/26 02:29:29;;;;;;;10.68;8.75;;;5.60;99.90;;;;;;5006353;28;20132;-70
2023/01/26 02:31:56;;;;;;;13.20;8.65;;;5.70;99.90;;;;;;5029760;28;20038;-70
2023/01/26 02:34:27;;;;;;;11.30;8.55;;;5.70;99.90;;;;;;5009489;28;20062;-70
2023/01/26 02:36:57;;;;;;;9.98;7.38;;;5.60;99.90;;;;;;4996533;28;20049;-70
2023/01/26 02:39:39;;;;;;;10.30;8.13;;;5.60;99.90;;;;;;5027545;28;20103;-69
2023/01/26 02:44:56;;;;;;;10.85;8.25;;;5.70;99.90;;;;;;5021161;28;20037;-70
2023/01/26 02:47:24;;;;;;;13.18;8.00;;;5.70;99.90;;;;;;4997156;28;20038;-70
2023/01/26 02:49:51;;;;;;;9.68;7.88;;;5.60;99.90;;;;;;5029449;28;20058;-68
2023/01/26 02:52:24;;;;;;;9.05;7.93;;;5.60;99.90;;;;;;5027776;28;20038;-70
2023/01/26 02:57:39;;;;;;;9.93;7.05;;;5.60;99.90;;;;;;5021510;28;20432;-71
2023/01/26 03:00:10;;;;;;;11.30;7.53;;;5.50;99.90;;;;;;4995671;28;20446;-69
2023/01/26 03:02:40;;;;;;;11.20;7.57;;;5.50;99.90;;;;;;5006172;28;20048;-68
2023/01/26 03:05:08;;;;;;;10.35;8.20;;;5.60;99.90;;;;;;5027847;28;20053;-71
2023/01/26 03:07:35;;;;;;;10.57;7.88;;;5.60;99.90;;;;;;5000105;28;20049;-70
2023/01/26 03:10:03;;;;;;;10.15;7.95;;;5.60;99.90;;;;;;5011285;28;20409;-69
2023/01/26 03:12:31;;;;;;;8.30;7.20;;;5.60;99.90;;;;;;4979453;28;20375;-71
2023/01/26 03:17:44;;;;;;;8.63;7.60;;;5.50;99.90;;;;;;5002909;28;20141;-69
2023/01/26 03:28:29;;;;;;;7.35;6.18;;;5.50;99.90;;;;;;5010932;28;20033;-70
2023/01/26 03:30:57;;;;;;;6.97;6.10;;;5.40;99.90;;;;;;4993636;28;20104;-70
2023/01/26 03:33:24;;;;;;;7.05;6.05;;;5.50;99.90;;;;;;4991956;28;20126;-69
2023/01/26 03:35:53;;;;;;;7.10;5.90;;;5.40;99.90;;;;;;4994056;28;20064;-70
2023/01/26 03:38:21;;;;;;;6.85;6.15;;;5.40;99.90;;;;;;4995048;28;20180;-70
2023/01/26 03:57:28;;;;;;;5.65;5.10;;;5.00;99.90;;;;;;4989957;28;20456;-70
2023/01/26 03:59:55;;;;;;;5.50;5.00;;;5.00;99.90;;;;;;4986317;28;20050;-71
2023/01/26 04:10:45;;;;;;;5.85;5.28;;;5.00;99.90;;;;;;5007836;28;20038;-70
2023/01/26 04:21:34;;;;;;;6.28;5.10;;;5.00;99.90;;;;;;5014032;28;20038;-71
2023/01/26 04:24:08;;;;;;;5.65;4.95;;;5.00;99.90;;;;;;4990407;28;20058;-71
2023/01/26 04:26:36;;;;;;;7.13;5.80;;;5.00;99.90;;;;;;4994948;28;20034;-70
2023/01/26 04:29:14;;;;;;;6.07;5.10;;;5.10;99.90;;;;;;5014380;28;20148;-70
2023/01/26 04:31:42;;;;;;;6.45;5.40;;;5.00;99.90;;;;;;4980476;28;20044;-71
2023/01/26 04:34:12;;;;;;;6.03;5.43;;;5.00;99.90;;;;;;4997112;28;20120;-70
2023/01/26 04:36:41;;;;;;;7.68;5.85;;;5.10;99.90;;;;;;4996915;28;20371;-70
2023/01/26 04:39:08;;;;;;;6.80;5.50;;;5.00;99.90;;;;;;5013960;28;20053;-71
2023/01/26 04:41:36;;;;;;;6.20;5.50;;;5.20;99.90;;;;;;4996431;28;20042;-70
2023/01/26 04:44:03;;;;;;;6.90;5.85;;;5.00;99.90;;;;;;5013884;28;20045;-71
2023/01/26 04:46:32;;;;;;;6.57;5.60;;;5.00;99.90;;;;;;4996756;28;20052;-71
2023/01/26 04:48:59;;;;;;;5.93;5.15;;;4.90;99.90;;;;;;5014096;28;20042;-71
2023/01/26 04:51:27;;;;;;;6.47;5.60;;;5.00;99.90;;;;;;4996250;28;20056;-71
2023/01/26 04:53:55;;;;;;;5.60;5.00;;;5.00;99.90;;;;;;4996196;28;20113;-68
2023/01/26 04:56:23;;;;;;;5.93;5.18;;;5.00;99.90;;;;;;5013994;28;20129;-71
2023/01/26 04:58:51;;;;;;;5.50;5.00;;;4.90;99.90;;;;;;4995829;28;20054;-71
2023/01/26 05:01:19;;;;;;;5.50;4.90;;;4.80;99.90;;;;;;4996367;28;20042;-71
2023/01/26 05:03:47;;;;;;;5.90;5.20;;;4.90;99.90;;;;;;4996221;28;20050;-70
2023/01/26 05:06:14;;;;;;;5.60;5.07;;;4.90;99.90;;;;;;5013518;28;20052;-70
2023/01/26 05:08:42;;;;;;;5.90;5.30;;;5.00;99.90;;;;;;4996060;28;20112;-71
2023/01/26 05:11:09;;;;;;;5.90;5.30;;;4.90;99.90;;;;;;4995820;28;20108;-70
2023/01/26 05:13:38;;;;;;;6.05;5.40;;;4.90;99.90;;;;;;5012925;28;20038;-70
2023/01/26 05:16:06;;;;;;;5.72;5.13;;;4.90;99.90;;;;;;4996207;28;20046;-70
2023/01/26 05:18:34;;;;;;;5.68;5.18;;;4.90;99.90;;;;;;4988141;28;20391;-70
2023/01/26 05:21:01;;;;;;;6.13;5.50;;;5.00;99.90;;;;;;4996309;28;20095;-71
2023/01/26 05:23:29;;;;;;;6.65;4.93;;;5.00;99.90;;;;;;4993777;28;20054;-70
2023/01/26 05:25:56;;;;;;;6.00;5.40;;;5.00;99.90;;;;;;5006495;28;20499;-71
2023/01/26 05:28:23;;;;;;;5.72;5.13;;;5.10;99.90;;;;;;5012623;28;20045;-70
2023/01/26 05:30:51;;;;;;;5.88;5.10;;;5.20;99.90;;;;;;5012133;28;20108;-71
2023/01/26 05:33:21;;;;;;;6.32;5.20;;;5.00;99.90;;;;;;5009174;28;20089;-69
2023/01/26 05:35:49;;;;;;;6.38;5.22;;;5.00;99.90;;;;;;4993823;28;20490;-69
2023/01/26 05:38:16;;;;;;;5.55;5.03;;;5.00;99.90;;;;;;4993562;28;20622;-69
2023/01/26 05:40:44;;;;;;;7.65;5.18;;;5.10;99.90;;;;;;5010663;28;20470;-69
2023/01/26 05:43:16;;;;;;;5.72;5.05;;;5.00;99.90;;;;;;5008729;28;20088;-69
2023/01/26 05:45:43;;;;;;;5.55;4.85;;;4.90;99.90;;;;;;4977468;28;20041;-70
2023/01/26 05:48:10;;;;;;;5.78;4.88;;;5.00;99.90;;;;;;4984114;28;20050;-70
2023/01/26 05:50:38;;;;;;;6.10;4.72;;;4.90;99.90;;;;;;4996009;28;20448;-70
2023/01/26 05:53:05;;;;;;;5.78;5.00;;;5.00;99.90;;;;;;5011035;28;20038;-71
2023/01/26 05:55:35;;;;;;;6.53;5.22;;;5.10;99.90;;;;;;4992222;28;20108;-71
2023/01/26 05:58:02;;;;;;;6.03;5.18;;;4.90;99.90;;;;;;4965803;28;20045;-69
2023/01/26 06:00:30;;;;;;;6.13;5.10;;;4.90;99.90;;;;;;4992103;28;20089;-69
2023/01/26 06:02:57;;;;;;;5.68;4.95;;;4.80;99.90;;;;;;4977494;28;20045;-69
2023/01/26 06:05:24;;;;;;;5.75;5.15;;;4.80;99.90;;;;;;5007796;28;20038;-70
2023/01/26 06:07:51;;;;;;;5.55;5.03;;;4.80;99.90;;;;;;5006647;28;20078;-70
2023/01/26 06:10:18;;;;;;;6.03;5.43;;;4.80;99.90;;;;;;5011989;28;20049;-72
2023/01/26 06:12:46;;;;;;;10.30;5.93;;;4.70;99.90;;;;;;4994163;28;20042;-70
2023/01/26 06:15:13;;;;;;;14.43;9.18;;;4.80;99.90;;;;;;5003217;28;20049;-72
2023/01/26 06:17:40;;;;;;;17.77;11.23;;;5.20;99.90;;;;;;4977711;28;20504;-72
2023/01/26 06:20:08;;;;;;;19.55;12.98;;;5.30;99.90;;;;;;4994351;28;20045;-69
2023/01/26 06:22:36;;;;;;;24.45;13.93;;;5.50;99.90;;;;;;4994315;28;20050;-69
2023/01/26 06:25:04;;;;;;;24.27;14.18;;;5.60;99.90;;;;;;4993207;28;20092;-71
2023/01/26 06:27:33;;;;;;;7.28;6.57;;;5.30;99.90;;;;;;4992311;28;20164;-70
2023/01/26 06:30:00;;;;;;;7.55;5.90;;;5.00;99.90;;;;;;4976409;23;20651;-70
2023/01/26 06:32:28;;;;;;;6.22;5.47;;;5.00;99.90;;;;;;4973816;28;20415;-70
2023/01/26 06:34:55;;;;;;;6.43;5.25;;;4.80;99.90;;;;;;4988900;28;20038;-70
2023/01/26 06:37:22;;;;;;;7.80;5.50;;;4.80;99.90;;;;;;4975155;28;20531;-71
2023/01/26 06:39:50;;;;;;;7.28;5.65;;;4.80;99.90;;;;;;4989778;28;20103;-68
2023/01/26 06:42:17;;;;;;;6.93;5.90;;;4.90;99.90;;;;;;4972636;28;20050;-69
2023/01/26 06:44:44;;;;;;;6.85;5.50;;;4.90;99.90;;;;;;4968054;28;20046;-70
2023/01/26 06:47:13;;;;;;;6.15;5.47;;;4.70;99.90;;;;;;4985418;28;20054;-70
2023/01/26 06:49:44;;;;;;;7.80;6.25;;;4.80;99.90;;;;;;4982178;28;20407;-70
2023/01/26 06:52:31;;;;;;;6.40;5.70;;;4.80;99.90;;;;;;4988261;28;20035;-69
2023/01/26 06:54:59;;;;;;;6.05;5.35;;;4.80;99.90;;;;;;4981002;28;20502;-70
2023/01/26 06:57:27;;;;;;;5.60;5.00;;;4.70;99.90;;;;;;4983827;28;20038;-69
2023/01/26 06:59:56;;;;;;;6.43;5.72;;;4.70;99.90;;;;;;4987087;28;20046;-71
2023/01/26 07:02:23;;;;;;;8.40;6.18;;;5.40;99.90;;;;;;4987321;28;20074;-70
2023/01/26 07:04:51;;;;;;;17.33;8.10;;;5.90;99.90;;;;;;4998876;28;20050;-70
2023/01/26 07:07:18;;;;;;;7.00;6.20;;;6.70;99.90;;;;;;4985778;28;20049;-71
2023/01/26 07:09:49;;;;;;;7.57;5.97;;;6.30;99.90;;;;;;4990275;28;20038;-70
2023/01/26 07:12:16;;;;;;;6.10;5.50;;;5.50;99.90;;;;;;4990918;28;20141;-72
2023/01/26 07:14:43;;;;;;;6.97;5.20;;;5.20;99.90;;;;;;4979312;28;20554;-70
2023/01/26 07:17:10;;;;;;;6.30;5.40;;;5.00;99.90;;;;;;4963426;28;20042;-70
2023/01/26 07:19:38;;;;;;;6.00;5.40;;;5.00;99.90;;;;;;4982292;28;20125;-71
2023/01/26 07:22:05;;;;;;;5.88;5.28;;;4.90;99.90;;;;;;4995073;28;20092;-70
2023/01/26 07:24:32;;;;;;;6.68;5.50;;;4.90;99.90;;;;;;4982262;28;20049;-70
2023/01/26 07:27:02;;;;;;;7.57;5.82;;;4.70;99.90;;;;;;4987788;28;20043;-70
2023/01/26 07:29:30;;;;;;;7.45;5.80;;;4.80;99.90;;;;;;4981840;28;20038;-70
2023/01/26 07:31:57;;;;;;;8.48;5.80;;;4.80;99.90;;;;;;4982000;28;20050;-71
2023/01/26 07:34:25;;;;;;;7.25;5.78;;;4.90;99.90;;;;;;4977678;28;20445;-71
2023/01/26 07:36:52;;;;;;;6.47;5.35;;;4.90;99.90;;;;;;4973766;28;20136;-71
2023/01/26 07:39:19;;;;;;;6.47;5.45;;;4.90;99.90;;;;;;4978274;28;20043;-71
2023/01/26 07:41:47;;;;;;;7.57;5.80;;;4.90;99.90;;;;;;4958198;28;20054;-71
2023/01/26 07:44:15;;;;;;;6.35;5.72;;;5.00;99.90;;;;;;4990169;28;20066;-71
2023/01/26 07:46:42;;;;;;;6.22;5.60;;;4.90;99.90;;;;;;4972599;28;20096;-71
2023/01/26 07:49:12;;;;;;;6.93;5.80;;;5.00;99.90;;;;;;4990588;28;20403;-71
2023/01/26 07:51:43;;;;;;;6.07;5.35;;;5.00;99.90;;;;;;4968635;28;20057;-71
2023/01/26 07:54:13;;;;;;;6.78;6.07;;;4.80;99.90;;;;;;4965426;28;20034;-71
2023/01/26 07:56:40;;;;;;;7.05;5.78;;;4.90;99.90;;;;;;4984918;28;20097;-72
2023/01/26 07:59:10;;;;;;;7.28;5.97;;;4.90;99.90;;;;;;4985966;28;20402;-71
2023/01/26 08:01:38;;;;;;;7.13;5.40;;;5.00;99.90;;;;;;4985925;28;20046;-70
2023/01/26 08:04:06;;;;;;;5.97;5.30;;;5.00;99.90;;;;;;4991253;28;20049;-72
2023/01/26 08:06:33;;;;;;;6.50;5.50;;;5.00;99.90;;;;;;4990300;28;20053;-71
2023/01/26 08:09:01;;;;;;;6.43;5.60;;;4.90;99.90;;;;;;4996873;28;20039;-71
2023/01/26 08:11:28;;;;;;;6.18;5.57;;;4.90;99.90;;;;;;5006503;28;20457;-71
2023/01/26 08:13:56;;;;;;;8.00;6.68;;;4.90;99.90;;;;;;4998241;28;20117;-71
2023/01/26 08:16:24;;;;;;;6.53;5.75;;;4.90;99.90;;;;;;4993545;28;20133;-70
2023/01/26 08:18:51;;;;;;;6.45;5.85;;;4.80;99.90;;;;;;4972228;28;20141;-70
2023/01/26 08:21:24;;;;;;;6.75;5.80;;;4.80;99.90;;;;;;4981607;28;20110;-71
2023/01/26 08:23:54;;;;;;;6.95;6.07;;;4.80;99.90;;;;;;4971080;28;20066;-72
2023/01/26 08:26:22;;;;;;;7.35;6.07;;;4.90;99.90;;;;;;4990531;28;20050;-71
2023/01/26 08:28:49;;;;;;;6.13;5.53;;;5.00;99.90;;;;;;4991978;28;20053;-70
2023/01/26 08:31:19;;;;;;;6.82;6.00;;;4.80;99.90;;;;;;4990184;28;20035;-70
2023/01/26 08:33:49;;;;;;;;;;;4.90;99.90;;;;;;4991222;28;20126;-70
2023/01/26 08:36:18;;;;;;;6.93;5.53;;;4.90;99.90;;;;;;4991366;28;19922;-70
2023/01/26 08:38:49;;;;;;;6.75;5.57;;;4.80;99.90;;;;;;4992013;28;20039;-70
2023/01/26 08:41:19;;;;;;;8.15;6.05;;;4.90;99.90;;;;;;4987778;28;20180;-70
2023/01/26 08:43:46;;;;;;;7.10;5.63;;;4.90;99.90;;;;;;4991070;28;20414;-71
2023/01/26 08:46:14;;;;;;;6.00;5.40;;;4.90;99.90;;;;;;5004485;28;20053;-72
2023/01/26 08:48:47;;;;;;;6.50;5.53;;;5.00;99.90;;;;;;4974842;28;20050;-73
2023/01/26 08:51:17;;;;;;;8.55;5.70;;;5.00;99.90;;;;;;4990414;28;20096;-71
2023/01/26 08:53:44;;;;;;;6.28;5.63;;;4.80;99.90;;;;;;5005343;28;20455;-71
2023/01/26 08:56:12;;;;;;;5.95;5.35;;;4.90;99.90;;;;;;4981149;28;20394;-71
2023/01/26 08:58:39;;;;;;;7.35;5.40;;;5.20;99.90;;;;;;4990224;28;20053;-71
2023/01/26 09:01:11;;;;;;;6.93;5.25;;;5.20;99.90;;;;;;5003006;28;20121;-71
2023/01/26 09:03:38;;;;;;;5.93;5.32;;;5.10;99.90;;;;;;4987783;28;20057;-71
2023/01/26 09:06:08;;;;;;;5.93;5.32;;;5.10;99.90;;;;;;4983792;28;20035;-73
2023/01/26 09:08:36;;;;;;;5.55;4.72;;;5.00;99.90;;;;;;4982909;28;20047;-72
2023/01/26 09:11:05;;;;;;;5.93;5.20;;;5.20;99.90;;;;;;4999392;28;20042;-70
2023/01/26 09:13:33;;;;;;;5.25;4.75;;;5.10;99.90;;;;;;4990896;28;20104;-72
2023/01/26 09:16:23;;;;;;;5.60;4.80;;;5.00;99.90;;;;;;4993966;28;20379;-72
2023/01/26 09:18:53;;;;;;;5.82;5.05;;;5.00;99.90;;;;;;4986225;28;20476;-73
2023/01/26 09:21:22;;;;;;;6.13;5.50;;;5.00;99.90;;;;;;4984623;28;20560;-71
2023/01/26 09:23:49;;;;;;;5.40;4.90;;;5.00;99.90;;;;;;4989913;28;20097;-71
2023/01/26 09:26:17;;;;;;;6.05;5.15;;;5.10;99.90;;;;;;4987956;28;20050;-71
2023/01/26 09:28:48;;;;;;;5.45;4.95;;;5.00;99.90;;;;;;4989383;28;20071;-71
2023/01/26 09:31:15;;;;;;;5.70;5.03;;;5.10;99.90;;;;;;4987937;28;20114;-71
2023/01/26 09:33:42;;;;;;;5.40;4.70;;;5.10;99.90;;;;;;4989956;28;20077;-70
2023/01/26 09:36:12;;;;;;;6.13;4.93;;;5.00;99.90;;;;;;4997892;28;20129;-71
2023/01/26 09:38:39;;;;;;;6.47;5.25;;;5.00;99.90;;;;;;4990975;28;20034;-71
2023/01/26 09:41:19;;;;;;;7.07;5.28;;;5.00;99.90;;;;;;4971124;28;20446;-72
2023/01/26 09:43:48;;;;;;;6.15;5.55;;;4.80;99.90;;;;;;4992355;28;20049;-71
2023/01/26 09:46:19;;;;;;;5.88;5.28;;;4.90;99.90;;;;;;4988657;28;20080;-70
2023/01/26 09:49:25;;;;;;;6.18;5.57;;;5.00;99.90;;;;;;4989855;28;20057;-72
2023/01/26 09:52:13;;;;;;;7.30;6.18;;;5.00;99.90;;;;;;4995165;28;20088;-72
2023/01/26 09:54:48;;;;;;;6.95;6.22;;;5.00;99.90;;;;;;5002663;28;20062;-71
2023/01/26 09:57:40;;;;;;;9.32;6.43;;;5.10;99.90;;;;;;4988915;28;20082;-73
2023/01/26 10:00:13;;;;;;;6.65;5.70;;;5.10;99.90;;;;;;4991225;28;20054;-71
2023/01/26 10:02:48;;;;;;;5.85;5.25;;;5.20;99.90;;;;;;4985801;28;20038;-70
2023/01/26 10:05:45;;;;;;;8.02;6.70;;;5.00;99.90;;;;;;4981413;28;20104;-72
2023/01/26 10:08:15;;;;;;;8.23;6.15;;;5.00;99.90;;;;;;4988163;28;20046;-72
2023/01/26 10:10:57;;;;;;;7.15;6.20;;;4.90;99.90;;;;;;4985853;28;20042;-72
2023/01/26 10:13:26;;;;;;;6.50;5.85;;;5.00;99.90;;;;;;4986738;28;20461;-72
2023/01/26 10:16:00;;;;;;;6.53;5.47;;;5.00;99.90;;;;;;5000761;28;20047;-71
2023/01/26 10:18:45;;;;;;;6.65;5.60;;;5.00;99.90;;;;;;4970343;28;20038;-72
2023/01/26 10:21:22;;;;;;;6.50;5.28;;;4.90;99.90;;;;;;4989451;28;20048;-73
2023/01/26 10:23:56;;;;;;;6.63;5.53;;;4.70;99.90;;;;;;4967765;28;20047;-70
2023/01/26 10:26:23;;;;;;;6.05;5.43;;;4.80;99.90;;;;;;5008392;28;20055;-73
2023/01/26 10:28:51;;;;;;;5.97;5.40;;;4.80;99.90;;;;;;4959377;28;20427;-70
2023/01/26 10:31:29;;;;;;;7.10;5.57;;;5.00;99.90;;;;;;4985781;28;20038;-73
2023/01/26 10:33:58;;;;;;;6.32;5.65;;;4.80;99.90;;;;;;4989853;28;20049;-70
2023/01/26 10:36:30;;;;;;;7.35;5.75;;;4.90;99.90;;;;;;4989051;28;20519;-71
2023/01/26 10:39:06;;;;;;;7.55;6.07;;;5.40;99.90;;;;;;4992392;28;20459;-73
2023/01/26 10:41:34;;;;;;;7.00;6.05;;;5.80;99.90;;;;;;5030316;22;20045;-72
2023/01/26 10:44:26;;;;;;;7.78;6.53;;;6.50;99.90;;;;;;5028964;28;20382;-71
2023/01/26 10:47:03;;;;;;;6.93;5.93;;;6.40;99.90;;;;;;4990277;28;20033;-70
2023/01/26 10:49:31;;;;;;;7.05;5.80;;;6.30;99.90;;;;;;5011057;28;20049;-67
2023/01/26 10:52:13;;;;;;;8.32;6.32;;;6.20;99.90;;;;;;5024761;28;20128;-69
2023/01/26 10:54:43;;;;;;;8.70;7.22;;;6.40;99.90;;;;;;5019061;28;20544;-72
2023/01/26 10:57:27;;;;;;;8.57;6.88;;;6.20;99.90;;;;;;5010846;28;20067;-73
2023/01/26 11:00:07;;;;;;;9.40;7.00;;;6.30;99.90;;;;;;5013891;28;20451;-70
2023/01/26 11:02:35;;;;;;;7.60;6.75;;;6.50;99.90;;;;;;5023607;28;20034;-72
2023/01/26 11:05:06;;;;;;;7.40;6.22;;;6.40;99.90;;;;;;5028703;28;20037;-71
2023/01/26 11:07:34;;;;;;;6.97;6.22;;;6.20;99.90;;;;;;5011039;28;20045;-70
2023/01/26 11:10:30;;;;;;;6.80;6.10;;;5.90;99.90;;;;;;5009858;28;20077;-74
2023/01/26 11:13:20;;;;;;;8.07;6.55;;;5.60;99.90;;;;;;5000607;28;20050;-71
2023/01/26 11:16:15;;;;;;;8.27;6.07;;;5.50;99.90;;;;;;4986816;28;20030;-73
2023/01/26 11:18:52;;;;;;;7.43;6.22;;;5.30;99.90;;;;;;4998551;28;20763;-71
2023/01/26 11:21:32;;;;;;;8.65;6.30;;;5.10;99.90;;;;;;4986153;28;20045;-70
2023/01/26 11:24:25;;;;;;;7.03;6.30;;;5.30;99.90;;;;;;5009887;28;20054;-70
2023/01/26 11:27:07;;;;;;;8.52;7.07;;;5.20;99.90;;;;;;4978998;28;20046;-68
2023/01/26 11:29:35;;;;;;;7.35;6.07;;;5.20;99.90;;;;;;5010393;28;20473;-70
2023/01/26 11:32:33;;;;;;;7.30;6.22;;;5.30;99.90;;;;;;4970604;28;20039;-70
2023/01/26 11:35:21;;;;;;;7.38;6.57;;;5.20;99.90;;;;;;4986018;28;20045;-71
2023/01/26 11:38:14;;;;;;;7.82;6.68;;;5.10;99.90;;;;;;5003546;28;20460;-70
2023/01/26 11:40:57;;;;;;;7.13;6.38;;;5.20;99.90;;;;;;4980866;28;20426;-71
2023/01/26 11:44:07;;;;;;;10.45;8.30;;;5.10;99.90;;;;;;4985237;28;20433;-72
2023/01/26 11:47:02;;;;;;;7.22;6.43;;;5.40;99.90;;;;;;5006768;28;20042;-70
2023/01/26 11:50:00;;;;;;;6.78;6.07;;;5.50;99.90;;;;;;4985424;28;20129;-69
2023/01/26 11:52:35;;;;;;;7.85;6.20;;;5.30;99.90;;;;;;4997703;28;20046;-70
2023/01/26 11:55:24;;;;;;;7.72;6.43;;;5.40;99.90;;;;;;4972851;28;20054;-70
2023/01/26 11:58:11;;;;;;;7.70;6.90;;;5.50;99.90;;;;;;4981699;28;20044;-73
2023/01/26 12:00:43;;;;;;;10.50;8.73;;;5.50;99.90;;;;;;4979954;28;20049;-72
2023/01/26 12:03:29;;;;;;;13.15;9.38;;;5.50;99.90;;;;;;4979131;28;20039;-70
2023/01/26 12:06:01;;;;;;;11.18;7.45;;;5.50;99.90;;;;;;4977929;28;20049;-69
2023/01/26 12:08:40;;;;;;;11.10;7.70;;;5.60;99.90;;;;;;4997913;28;20591;-70
2023/01/26 12:11:24;;;;;;;8.77;7.63;;;5.60;99.90;;;;;;4994160;28;20054;-74
2023/01/26 12:14:20;;;;;;;9.35;7.28;;;5.50;99.90;;;;;;4988158;28;20505;-69
2023/01/26 12:16:56;;;;;;;8.95;7.00;;;5.60;99.90;;;;;;4975435;28;20129;-70
2023/01/26 12:20:18;;;;;;;9.43;7.68;;;5.50;99.90;;;;;;4991216;28;20434;-73
2023/01/26 12:23:17;;;;;;;10.15;7.97;;;5.60;99.90;;;;;;4999151;28;20096;-68
2023/01/26 12:25:51;;;;;;;10.55;8.25;;;5.60;99.90;;;;;;4974922;28;20089;-70
2023/01/26 12:28:27;;;;;;;9.75;8.55;;;5.60;99.90;;;;;;4979738;28;20041;-71
2023/01/26 12:31:11;;;;;;;12.75;8.10;;;5.80;99.90;;;;;;4976203;28;20047;-68
2023/01/26 12:33:39;;;;;;;10.63;7.68;;;5.80;99.90;;;;;;4993766;28;20120;-69
2023/01/26 12:36:31;;;;;;;12.43;8.20;;;5.70;99.90;;;;;;4992012;28;20027;-70
2023/01/26 12:39:10;;;;;;;10.23;7.45;;;5.80;99.90;;;;;;4975897;28;20494;-72
2023/01/26 12:42:06;;;;;;;13.25;8.43;;;5.80;99.90;;;;;;4995333;28;20133;-70
2023/01/26 12:44:42;;;;;;;15.20;11.38;;;5.90;99.90;;;;;;4982861;28;20038;-72
2023/01/26 12:47:33;;;;;;;13.05;9.98;;;6.10;99.90;;;;;;4993736;28;20092;-70
2023/01/26 12:50:25;;;;;;;10.88;8.23;;;6.20;99.90;;;;;;4993376;28;20058;-71
2023/01/26 12:53:06;;;;;;;9.27;7.10;;;6.10;99.90;;;;;;4977581;28;20038;-67
2023/01/26 12:56:20;;;;;;;9.10;7.80;;;6.00;99.90;;;;;;4992861;28;20038;-68
2023/01/26 12:59:20;;;;;;;10.63;7.57;;;5.90;99.90;;;;;;4996025;28;20038;-70
2023/01/26 13:02:24;;;;;;;11.40;8.23;;;5.90;99.90;;;;;;5000037;28;20057;-69
2023/01/26 13:04:53;;;;;;;12.02;8.68;;;5.90;99.90;;;;;;4994339;28;20046;-68
2023/01/26 13:07:39;;;;;;;9.53;8.37;;;5.90;99.90;;;;;;4996305;28;20129;-68
2023/01/26 13:10:19;;;;;;;8.93;7.55;;;5.90;99.90;;;;;;4997068;28;20057;-71
2023/01/26 13:12:49;;;;;;;8.63;7.05;;;5.90;99.90;;;;;;4991345;28;20049;-67
2023/01/26 13:15:19;;;;;;;9.95;7.70;;;5.90;99.90;;;;;;4983162;28;20081;-70
2023/01/26 13:18:00;;;;;;;11.02;7.63;;;6.00;99.90;;;;;;4996827;28;20383;-69
2023/01/26 13:20:39;;;;;;;10.52;7.57;;;6.10;99.90;;;;;;4981706;28;20056;-70
2023/01/26 13:23:44;;;;;;;9.00;7.57;;;6.10;99.90;;;;;;4978249;28;20053;-69
2023/01/26 13:26:20;;;;;;;10.85;7.97;;;6.20;99.90;;;;;;4974337;28;20057;-71
2023/01/26 13:28:48;;;;;;;10.00;7.55;;;6.20;99.90;;;;;;4978199;28;20109;-69
2023/01/26 13:31:31;;;;;;;9.70;7.82;;;6.10;99.90;;;;;;4998007;28;20512;-68
2023/01/26 13:34:05;;;;;;;10.30;7.68;;;6.20;99.90;;;;;;4974148;28;20379;-70
2023/01/26 13:36:37;;;;;;;16.73;12.15;;;6.20;99.90;;;;;;4994177;28;20034;-68
2023/01/26 13:39:13;;;;;;;13.40;9.70;;;6.30;99.90;;;;;;4994357;28;20050;-69
2023/01/26 13:41:46;;;;;;;10.65;7.88;;;6.30;99.90;;;;;;4961959;28;20054;-68
2023/01/26 13:44:19;;;;;;;8.70;7.00;;;6.30;99.90;;;;;;4975920;28;20081;-67
2023/01/26 13:47:19;;;;;;;8.40;6.90;;;6.30;99.90;;;;;;4994094;28;20109;-69
2023/01/26 13:49:49;;;;;;;9.50;7.93;;;6.30;99.90;;;;;;4977938;28;20133;-67
2023/01/26 13:52:24;;;;;;;9.50;7.28;;;6.30;99.90;;;;;;4993848;28;20529;-68
2023/01/26 13:54:55;;;;;;;9.35;7.45;;;6.30;99.90;;;;;;4993367;28;20041;-70
2023/01/26 13:57:26;;;;;;;10.18;7.60;;;6.20;99.90;;;;;;5005271;28;20124;-72
2023/01/26 13:59:55;;;;;;;9.65;7.32;;;6.20;99.90;;;;;;5011034;28;20042;-70
2023/01/26 14:02:30;;;;;;;9.68;7.03;;;6.20;99.90;;;;;;4998283;28;20042;-71
2023/01/26 14:04:58;;;;;;;9.05;6.60;;;6.20;99.90;;;;;;5015081;28;20408;-71
2023/01/26 14:07:30;;;;;;;8.52;6.65;;;6.30;99.90;;;;;;5006539;28;20029;-71
2023/01/26 14:09:59;;;;;;;9.52;7.45;;;6.20;99.90;;;;;;5007626;28;20043;-72
2023/01/26 14:12:35;;;;;;;11.55;7.82;;;6.20;99.90;;;;;;5009583;28;20080;-73
2023/01/26 14:15:22;;;;;;;8.30;6.95;;;6.20;99.90;;;;;;4990086;28;20054;-71